sensor_id;sensor_type;location;lat;lon;timestamp;temperature;humidity
14378;DHT22;7272;53.668;9.578;2022-12-24T00:02:11;6.50;99.90
14378;DHT22;7272;53.668;9.578;2022-12-24T00:05:13;6.50;99.90
14378;DHT22;7272;53.668;9.578;2022-12-24T00:08:17;6.50;99.90
14378;DHT22;7272;53.668;9.578;2022-12-24T00:11:19;6.50;99.90
14378;DHT22;7272;53.668;9.578;2022-12-24T00:14:21;6.40;99.90
14378;DHT22;7272;53.668;9.578;2022-12-24T00:17:23;6.40;99.90
14378;DHT22;7272;53.668;9.578;2022-12-24T00:20:25;6.40;99.90
14378;DHT22;7272;53.668;9.578;2022-12-24T00:23:28;6.30;99.90
14378;DHT22;7272;53.668;9.578;2022-12-24T00:26:30;6.30;99.90
14378;DHT22;7272;53.668;9.578;2022-12-24T00:29:33;6.30;99.90
14378;DHT22;7272;53.668;9.578;2022-12-24T00:32:35;6.30;99.90
14378;DHT22;7272;53.668;9.578;2022-12-24T00:35:39;6.30;99.90
14378;DHT22;7272;53.668;9.578;2022-12-24T00:38:42;6.30;99.90
14378;DHT22;7272;53.668;9.578;2022-12-24T00:41:45;6.40;99.90
14378;DHT22;7272;53.668;9.578;2022-12-24T00:44:46;6.40;99.90
14378;DHT22;7272;53.668;9.578;2022-12-24T00:47:48;6.40;99.90
14378;DHT22;7272;53.668;9.578;2022-12-24T00:50:51;6.40;99.90
14378;DHT22;7272;53.668;9.578;2022-12-24T00:53:54;6.30;99.90
14378;DHT22;7272;53.668;9.578;2022-12-24T00:56:56;6.40;99.90
14378;DHT22;7272;53.668;9.578;2022-12-24T00:59:58;6.30;99.90
14378;DHT22;7272;53.668;9.578;2022-12-24T01:03:00;6.30;99.90
14378;DHT22;7272;53.668;9.578;2022-12-24T01:06:03;6.30;99.90
14378;DHT22;7272;53.668;9.578;2022-12-24T01:09:07;6.30;99.90
14378;DHT22;7272;53.668;9.578;2022-12-24T01:12:09;6.40;99.90
14378;DHT22;7272;53.668;9.578;2022-12-24T01:15:13;6.40;99.90
14378;DHT22;7272;53.668;9.578;2022-12-24T01:18:15;6.30;99.90
14378;DHT22;7272;53.668;9.578;2022-12-24T01:21:17;6.40;99.90
14378;DHT22;7272;53.668;9.578;2022-12-24T01:24:20;6.40;99.90
14378;DHT22;7272;53.668;9.578;2022-12-24T01:27:22;6.30;99.90
14378;DHT22;7272;53.668;9.578;2022-12-24T01:30:24;6.30;99.90
14378;DHT22;7272;53.668;9.578;2022-12-24T01:33:27;6.30;99.90
14378;DHT22;7272;53.668;9.578;2022-12-24T01:36:29;6.30;99.90
14378;DHT22;7272;53.668;9.578;2022-12-24T01:39:33;6.30;99.90
14378;DHT22;7272;53.668;9.578;2022-12-24T01:42:35;6.30;99.90
14378;DHT22;7272;53.668;9.578;2022-12-24T01:45:58;6.20;99.90
14378;DHT22;7272;53.668;9.578;2022-12-24T01:49:01;6.30;99.90
14378;DHT22;7272;53.668;9.578;2022-12-24T01:52:09;6.30;99.90
14378;DHT22;7272;53.668;9.578;2022-12-24T01:55:16;6.20;99.90
14378;DHT22;7272;53.668;9.578;2022-12-24T01:58:20;6.30;99.90
14378;DHT22;7272;53.668;9.578;2022-12-24T02:01:23;6.30;99.90
14378;DHT22;7272;53.668;9.578;2022-12-24T02:04:31;6.20;99.90
14378;DHT22;7272;53.668;9.578;2022-12-24T02:07:34;6.30;99.90
14378;DHT22;7272;53.668;9.578;2022-12-24T02:10:38;6.30;99.90
14378;DHT22;7272;53.668;9.578;2022-12-24T02:13:41;6.30;99.90
14378;DHT22;7272;53.668;9.578;2022-12-24T02:16:50;6.30;99.90
14378;DHT22;7272;53.668;9.578;2022-12-24T02:20:23;6.40;99.90
14378;DHT22;7272;53.668;9.578;2022-12-24T02:24:01;6.30;99.90
14378;DHT22;7272;53.668;9.578;2022-12-24T02:27:16;6.40;99.90
14378;DHT22;7272;53.668;9.578;2022-12-24T02:30:22;6.30;99.90
14378;DHT22;7272;53.668;9.578;2022-12-24T02:33:28;6.30;99.90
14378;DHT22;7272;53.668;9.578;2022-12-24T02:36:34;6.30;99.90
14378;DHT22;7272;53.668;9.578;2022-12-24T02:39:42;6.30;99.90
14378;DHT22;7272;53.668;9.578;2022-12-24T02:42:50;6.30;99.90
14378;DHT22;7272;53.668;9.578;2022-12-24T02:45:58;6.30;99.90
14378;DHT22;7272;53.668;9.578;2022-12-24T02:49:01;6.30;99.90
14378;DHT22;7272;53.668;9.578;2022-12-24T02:52:04;6.30;99.90
14378;DHT22;7272;53.668;9.578;2022-12-24T02:55:08;6.40;99.90
14378;DHT22;7272;53.668;9.578;2022-12-24T02:58:25;6.30;99.90
14378;DHT22;7272;53.668;9.578;2022-12-24T03:01:42;6.40;99.90
14378;DHT22;7272;53.668;9.578;2022-12-24T03:04:51;6.40;99.90
14378;DHT22;7272;53.668;9.578;2022-12-24T03:08:01;6.40;99.90
14378;DHT22;7272;53.668;9.578;2022-12-24T03:11:07;6.40;99.90
14378;DHT22;7272;53.668;9.578;2022-12-24T03:14:09;6.40;99.90
14378;DHT22;7272;53.668;9.578;2022-12-24T03:17:13;6.40;99.90
14378;DHT22;7272;53.668;9.578;2022-12-24T03:20:19;6.50;99.90
14378;DHT22;7272;53.668;9.578;2022-12-24T03:23:22;6.50;99.90
14378;DHT22;7272;53.668;9.578;2022-12-24T03:26:24;6.50;99.90
14378;DHT22;7272;53.668;9.578;2022-12-24T03:29:27;6.50;99.90
14378;DHT22;7272;53.668;9.578;2022-12-24T03:32:31;6.50;99.90
14378;DHT22;7272;53.668;9.578;2022-12-24T03:35:33;6.60;99.90
14378;DHT22;7272;53.668;9.578;2022-12-24T03:38:35;6.50;99.90
14378;DHT22;7272;53.668;9.578;2022-12-24T03:41:37;6.50;99.90
14378;DHT22;7272;53.668;9.578;2022-12-24T03:44:39;6.50;99.90
14378;DHT22;7272;53.668;9.578;2022-12-24T03:47:43;6.50;99.90
14378;DHT22;7272;53.668;9.578;2022-12-24T03:50:44;6.50;99.90
14378;DHT22;7272;53.668;9.578;2022-12-24T03:53:47;6.50;99.90
14378;DHT22;7272;53.668;9.578;2022-12-24T03:56:49;6.50;99.90
14378;DHT22;7272;53.668;9.578;2022-12-24T03:59:50;6.50;99.90
14378;DHT22;7272;53.668;9.578;2022-12-24T04:02:54;6.50;99.90
14378;DHT22;7272;53.668;9.578;2022-12-24T04:06:01;6.50;99.90
14378;DHT22;7272;53.668;9.578;2022-12-24T04:09:03;6.40;99.90
14378;DHT22;7272;53.668;9.578;2022-12-24T04:12:06;6.40;99.90
14378;DHT22;7272;53.668;9.578;2022-12-24T04:15:09;6.40;99.90
14378;DHT22;7272;53.668;9.578;2022-12-24T04:18:12;6.40;99.90
14378;DHT22;7272;53.668;9.578;2022-12-24T04:21:14;6.40;99.90
14378;DHT22;7272;53.668;9.578;2022-12-24T04:24:16;6.40;99.90
14378;DHT22;7272;53.668;9.578;2022-12-24T04:27:18;6.40;99.90
14378;DHT22;7272;53.668;9.578;2022-12-24T04:30:20;6.50;99.90
14378;DHT22;7272;53.668;9.578;2022-12-24T04:33:23;6.40;99.90
14378;DHT22;7272;53.668;9.578;2022-12-24T04:36:25;6.40;99.90
14378;DHT22;7272;53.668;9.578;2022-12-24T04:39:27;6.40;99.90
14378;DHT22;7272;53.668;9.578;2022-12-24T04:42:29;6.50;99.90
14378;DHT22;7272;53.668;9.578;2022-12-24T04:45:31;6.50;99.90
14378;DHT22;7272;53.668;9.578;2022-12-24T04:48:35;6.50;99.90
14378;DHT22;7272;53.668;9.578;2022-12-24T04:51:37;6.50;99.90
14378;DHT22;7272;53.668;9.578;2022-12-24T04:54:39;6.50;99.90
14378;DHT22;7272;53.668;9.578;2022-12-24T04:57:41;6.50;99.90
14378;DHT22;7272;53.668;9.578;2022-12-24T05:00:42;6.40;99.90
14378;DHT22;7272;53.668;9.578;2022-12-24T05:03:47;6.40;99.90
14378;DHT22;7272;53.668;9.578;2022-12-24T05:06:49;6.40;99.90
14378;DHT22;7272;53.668;9.578;2022-12-24T05:09:51;6.40;99.90
14378;DHT22;7272;53.668;9.578;2022-12-24T05:12:53;6.30;99.90
14378;DHT22;7272;53.668;9.578;2022-12-24T05:15:55;6.30;99.90
14378;DHT22;7272;53.668;9.578;2022-12-24T05:18:58;6.30;99.90
14378;DHT22;7272;53.668;9.578;2022-12-24T05:22:00;6.30;99.90
14378;DHT22;7272;53.668;9.578;2022-12-24T05:25:20;6.30;99.90
14378;DHT22;7272;53.668;9.578;2022-12-24T05:28:39;6.30;99.90
14378;DHT22;7272;53.668;9.578;2022-12-24T05:31:42;6.30;99.90
14378;DHT22;7272;53.668;9.578;2022-12-24T05:34:46;6.30;99.90
14378;DHT22;7272;53.668;9.578;2022-12-24T05:37:48;6.30;99.90
14378;DHT22;7272;53.668;9.578;2022-12-24T05:40:49;6.30;99.90
14378;DHT22;7272;53.668;9.578;2022-12-24T05:43:51;6.30;99.90
14378;DHT22;7272;53.668;9.578;2022-12-24T05:46:53;6.30;99.90
14378;DHT22;7272;53.668;9.578;2022-12-24T05:49:57;6.30;99.90
14378;DHT22;7272;53.668;9.578;2022-12-24T05:52:58;6.30;99.90
14378;DHT22;7272;53.668;9.578;2022-12-24T05:56:05;6.30;99.90
14378;DHT22;7272;53.668;9.578;2022-12-24T05:59:07;6.40;99.90
14378;DHT22;7272;53.668;9.578;2022-12-24T06:02:09;6.40;99.90
14378;DHT22;7272;53.668;9.578;2022-12-24T06:05:12;6.30;99.90
14378;DHT22;7272;53.668;9.578;2022-12-24T06:08:14;6.30;99.90
14378;DHT22;7272;53.668;9.578;2022-12-24T06:11:18;6.30;99.90
14378;DHT22;7272;53.668;9.578;2022-12-24T06:14:20;6.30;99.90
14378;DHT22;7272;53.668;9.578;2022-12-24T06:17:22;6.40;99.90
14378;DHT22;7272;53.668;9.578;2022-12-24T06:20:25;6.40;99.90
14378;DHT22;7272;53.668;9.578;2022-12-24T06:23:28;6.40;99.90
14378;DHT22;7272;53.668;9.578;2022-12-24T06:26:30;6.40;99.90
14378;DHT22;7272;53.668;9.578;2022-12-24T06:29:32;6.40;99.90
14378;DHT22;7272;53.668;9.578;2022-12-24T06:32:34;6.40;99.90
14378;DHT22;7272;53.668;9.578;2022-12-24T06:35:37;6.40;99.90
14378;DHT22;7272;53.668;9.578;2022-12-24T06:38:39;6.30;99.90
14378;DHT22;7272;53.668;9.578;2022-12-24T06:41:41;6.40;99.90
14378;DHT22;7272;53.668;9.578;2022-12-24T06:44:43;6.40;99.90
14378;DHT22;7272;53.668;9.578;2022-12-24T06:47:45;6.40;99.90
14378;DHT22;7272;53.668;9.578;2022-12-24T06:50:48;6.50;99.90
14378;DHT22;7272;53.668;9.578;2022-12-24T06:53:50;6.40;99.90
14378;DHT22;7272;53.668;9.578;2022-12-24T06:56:52;6.40;99.90
14378;DHT22;7272;53.668;9.578;2022-12-24T06:59:54;6.40;99.90
14378;DHT22;7272;53.668;9.578;2022-12-24T07:02:56;6.50;99.90
14378;DHT22;7272;53.668;9.578;2022-12-24T07:05:59;6.50;99.90
14378;DHT22;7272;53.668;9.578;2022-12-24T07:09:01;6.50;99.90
14378;DHT22;7272;53.668;9.578;2022-12-24T07:12:03;6.50;99.90
14378;DHT22;7272;53.668;9.578;2022-12-24T07:15:06;6.50;99.90
14378;DHT22;7272;53.668;9.578;2022-12-24T07:18:08;6.50;99.90
14378;DHT22;7272;53.668;9.578;2022-12-24T07:21:11;6.50;99.90
14378;DHT22;7272;53.668;9.578;2022-12-24T07:24:13;6.50;99.90
14378;DHT22;7272;53.668;9.578;2022-12-24T07:27:15;6.50;99.90
14378;DHT22;7272;53.668;9.578;2022-12-24T07:30:17;6.50;99.90
14378;DHT22;7272;53.668;9.578;2022-12-24T07:33:19;6.50;99.90
14378;DHT22;7272;53.668;9.578;2022-12-24T07:36:23;6.60;99.90
14378;DHT22;7272;53.668;9.578;2022-12-24T07:39:25;6.60;99.90
14378;DHT22;7272;53.668;9.578;2022-12-24T07:42:27;6.60;99.90
14378;DHT22;7272;53.668;9.578;2022-12-24T07:45:29;6.60;99.90
14378;DHT22;7272;53.668;9.578;2022-12-24T07:48:32;6.70;99.90
14378;DHT22;7272;53.668;9.578;2022-12-24T07:51:36;6.70;99.90
14378;DHT22;7272;53.668;9.578;2022-12-24T07:54:38;6.70;99.90
14378;DHT22;7272;53.668;9.578;2022-12-24T07:57:40;6.70;99.90
14378;DHT22;7272;53.668;9.578;2022-12-24T08:00:42;6.70;99.90
14378;DHT22;7272;53.668;9.578;2022-12-24T08:03:44;6.70;99.90
14378;DHT22;7272;53.668;9.578;2022-12-24T08:06:47;6.80;99.90
14378;DHT22;7272;53.668;9.578;2022-12-24T08:09:49;6.80;99.90
14378;DHT22;7272;53.668;9.578;2022-12-24T08:12:51;6.80;99.90
14378;DHT22;7272;53.668;9.578;2022-12-24T08:15:53;6.80;99.90
14378;DHT22;7272;53.668;9.578;2022-12-24T08:18:55;6.80;99.90
14378;DHT22;7272;53.668;9.578;2022-12-24T08:21:58;6.80;99.90
14378;DHT22;7272;53.668;9.578;2022-12-24T08:25:00;6.80;99.90
14378;DHT22;7272;53.668;9.578;2022-12-24T08:28:02;6.80;99.90
14378;DHT22;7272;53.668;9.578;2022-12-24T08:31:05;6.80;99.90
14378;DHT22;7272;53.668;9.578;2022-12-24T08:34:07;6.80;99.90
14378;DHT22;7272;53.668;9.578;2022-12-24T08:37:11;6.90;99.90
14378;DHT22;7272;53.668;9.578;2022-12-24T08:40:13;6.90;99.90
14378;DHT22;7272;53.668;9.578;2022-12-24T08:43:15;6.90;99.90
14378;DHT22;7272;53.668;9.578;2022-12-24T08:46:17;6.90;99.90
14378;DHT22;7272;53.668;9.578;2022-12-24T08:49:19;6.90;99.90
14378;DHT22;7272;53.668;9.578;2022-12-24T08:52:23;7.00;99.90
14378;DHT22;7272;53.668;9.578;2022-12-24T08:55:25;7.10;99.90
14378;DHT22;7272;53.668;9.578;2022-12-24T08:58:27;7.10;99.90
14378;DHT22;7272;53.668;9.578;2022-12-24T09:01:29;7.10;99.90
14378;DHT22;7272;53.668;9.578;2022-12-24T09:04:32;7.10;99.90
14378;DHT22;7272;53.668;9.578;2022-12-24T09:07:35;7.10;99.90
14378;DHT22;7272;53.668;9.578;2022-12-24T09:10:37;7.10;99.90
14378;DHT22;7272;53.668;9.578;2022-12-24T09:13:39;7.10;99.90
14378;DHT22;7272;53.668;9.578;2022-12-24T09:16:42;7.10;99.90
14378;DHT22;7272;53.668;9.578;2022-12-24T09:19:43;7.10;99.90
14378;DHT22;7272;53.668;9.578;2022-12-24T09:22:47;7.20;99.90
14378;DHT22;7272;53.668;9.578;2022-12-24T09:25:49;7.20;99.90
14378;DHT22;7272;53.668;9.578;2022-12-24T09:28:51;7.30;99.90
14378;DHT22;7272;53.668;9.578;2022-12-24T09:31:53;7.30;99.90
14378;DHT22;7272;53.668;9.578;2022-12-24T09:34:57;7.30;99.90
14378;DHT22;7272;53.668;9.578;2022-12-24T09:38:00;7.30;99.90
14378;DHT22;7272;53.668;9.578;2022-12-24T09:41:10;7.30;99.90
14378;DHT22;7272;53.668;9.578;2022-12-24T09:44:21;7.30;99.90
14378;DHT22;7272;53.668;9.578;2022-12-24T09:47:28;7.40;99.90
14378;DHT22;7272;53.668;9.578;2022-12-24T09:50:39;7.40;99.90
14378;DHT22;7272;53.668;9.578;2022-12-24T09:53:48;7.50;99.90
14378;DHT22;7272;53.668;9.578;2022-12-24T09:56:53;7.50;99.90
14378;DHT22;7272;53.668;9.578;2022-12-24T09:59:55;7.50;99.90
14378;DHT22;7272;53.668;9.578;2022-12-24T10:02:57;7.50;99.90
14378;DHT22;7272;53.668;9.578;2022-12-24T10:06:05;7.60;99.90
14378;DHT22;7272;53.668;9.578;2022-12-24T10:09:17;7.60;99.90
14378;DHT22;7272;53.668;9.578;2022-12-24T10:12:31;7.60;99.90
14378;DHT22;7272;53.668;9.578;2022-12-24T10:15:38;7.60;99.90
14378;DHT22;7272;53.668;9.578;2022-12-24T10:18:47;7.60;99.90
14378;DHT22;7272;53.668;9.578;2022-12-24T10:22:02;7.60;99.90
14378;DHT22;7272;53.668;9.578;2022-12-24T10:25:13;7.60;99.90
14378;DHT22;7272;53.668;9.578;2022-12-24T10:28:18;7.60;99.90
14378;DHT22;7272;53.668;9.578;2022-12-24T10:31:24;7.60;99.90
14378;DHT22;7272;53.668;9.578;2022-12-24T10:34:32;7.60;99.90
14378;DHT22;7272;53.668;9.578;2022-12-24T10:37:38;7.60;99.90
14378;DHT22;7272;53.668;9.578;2022-12-24T10:40:44;7.70;99.90
14378;DHT22;7272;53.668;9.578;2022-12-24T10:43:47;7.70;99.90
14378;DHT22;7272;53.668;9.578;2022-12-24T10:46:50;7.80;99.90
14378;DHT22;7272;53.668;9.578;2022-12-24T10:49:56;7.80;99.90
14378;DHT22;7272;53.668;9.578;2022-12-24T10:53:06;7.80;99.90
14378;DHT22;7272;53.668;9.578;2022-12-24T10:56:18;7.80;99.90
14378;DHT22;7272;53.668;9.578;2022-12-24T10:59:26;7.90;99.90
14378;DHT22;7272;53.668;9.578;2022-12-24T11:02:30;7.90;99.90
14378;DHT22;7272;53.668;9.578;2022-12-24T11:05:34;8.00;99.90
14378;DHT22;7272;53.668;9.578;2022-12-24T11:08:38;8.00;99.90
14378;DHT22;7272;53.668;9.578;2022-12-24T11:11:42;8.00;99.90
14378;DHT22;7272;53.668;9.578;2022-12-24T11:14:44;7.90;99.90
14378;DHT22;7272;53.668;9.578;2022-12-24T11:17:52;7.90;99.90
14378;DHT22;7272;53.668;9.578;2022-12-24T11:20:54;8.00;99.90
14378;DHT22;7272;53.668;9.578;2022-12-24T11:24:02;7.90;99.90
14378;DHT22;7272;53.668;9.578;2022-12-24T11:27:31;7.90;99.90
14378;DHT22;7272;53.668;9.578;2022-12-24T11:30:34;7.90;99.90
14378;DHT22;7272;53.668;9.578;2022-12-24T11:33:45;7.90;99.90
14378;DHT22;7272;53.668;9.578;2022-12-24T11:36:49;7.90;99.90
14378;DHT22;7272;53.668;9.578;2022-12-24T11:39:53;7.90;99.90
14378;DHT22;7272;53.668;9.578;2022-12-24T11:42:59;8.00;99.90
14378;DHT22;7272;53.668;9.578;2022-12-24T11:46:16;8.10;99.90
14378;DHT22;7272;53.668;9.578;2022-12-24T11:49:23;8.20;99.90
14378;DHT22;7272;53.668;9.578;2022-12-24T11:52:28;8.30;99.90
14378;DHT22;7272;53.668;9.578;2022-12-24T11:55:38;8.30;99.90
14378;DHT22;7272;53.668;9.578;2022-12-24T11:58:46;8.40;99.90
14378;DHT22;7272;53.668;9.578;2022-12-24T12:01:55;8.60;99.90
14378;DHT22;7272;53.668;9.578;2022-12-24T12:05:03;8.70;99.90
14378;DHT22;7272;53.668;9.578;2022-12-24T12:08:12;8.80;99.90
14378;DHT22;7272;53.668;9.578;2022-12-24T12:11:15;8.90;99.90
14378;DHT22;7272;53.668;9.578;2022-12-24T12:14:22;8.90;99.90
14378;DHT22;7272;53.668;9.578;2022-12-24T12:17:30;8.90;99.90
14378;DHT22;7272;53.668;9.578;2022-12-24T12:20:35;8.90;99.90
14378;DHT22;7272;53.668;9.578;2022-12-24T12:23:43;8.90;99.90
14378;DHT22;7272;53.668;9.578;2022-12-24T12:26:48;8.90;99.90
14378;DHT22;7272;53.668;9.578;2022-12-24T12:30:01;8.90;99.90
14378;DHT22;7272;53.668;9.578;2022-12-24T12:33:08;8.80;99.90
14378;DHT22;7272;53.668;9.578;2022-12-24T12:36:16;8.90;99.90
14378;DHT22;7272;53.668;9.578;2022-12-24T12:39:19;8.90;99.90
14378;DHT22;7272;53.668;9.578;2022-12-24T12:42:27;9.00;99.90
14378;DHT22;7272;53.668;9.578;2022-12-24T12:45:38;9.00;99.90
14378;DHT22;7272;53.668;9.578;2022-12-24T12:49:11;9.20;99.90
14378;DHT22;7272;53.668;9.578;2022-12-24T12:52:21;9.30;99.90
14378;DHT22;7272;53.668;9.578;2022-12-24T12:55:35;9.50;99.90
14378;DHT22;7272;53.668;9.578;2022-12-24T12:58:42;9.60;99.90
14378;DHT22;7272;53.668;9.578;2022-12-24T13:01:53;9.70;99.90
14378;DHT22;7272;53.668;9.578;2022-12-24T13:12:14;9.80;99.90
14378;DHT22;7272;53.668;9.578;2022-12-24T13:19:02;9.70;99.90
14378;DHT22;7272;53.668;9.578;2022-12-24T13:22:13;9.60;99.90
14378;DHT22;7272;53.668;9.578;2022-12-24T13:25:21;9.50;99.90
14378;DHT22;7272;53.668;9.578;2022-12-24T13:28:32;9.50;99.90
14378;DHT22;7272;53.668;9.578;2022-12-24T13:31:34;9.50;99.90
14378;DHT22;7272;53.668;9.578;2022-12-24T13:34:38;9.50;99.90
14378;DHT22;7272;53.668;9.578;2022-12-24T13:37:40;9.50;99.90
14378;DHT22;7272;53.668;9.578;2022-12-24T13:40:42;9.60;99.90
14378;DHT22;7272;53.668;9.578;2022-12-24T13:44:02;9.60;99.90
14378;DHT22;7272;53.668;9.578;2022-12-24T13:47:19;9.70;99.90
14378;DHT22;7272;53.668;9.578;2022-12-24T13:50:35;9.80;99.90
14378;DHT22;7272;53.668;9.578;2022-12-24T13:53:41;9.80;99.90
14378;DHT22;7272;53.668;9.578;2022-12-24T13:56:45;9.90;99.90
14378;DHT22;7272;53.668;9.578;2022-12-24T13:59:47;9.90;99.90
14378;DHT22;7272;53.668;9.578;2022-12-24T14:03:00;10.00;99.90
14378;DHT22;7272;53.668;9.578;2022-12-24T14:06:07;10.00;99.90
14378;DHT22;7272;53.668;9.578;2022-12-24T14:09:13;10.00;99.90
14378;DHT22;7272;53.668;9.578;2022-12-24T14:12:32;10.10;99.90
14378;DHT22;7272;53.668;9.578;2022-12-24T14:16:04;10.10;99.90
14378;DHT22;7272;53.668;9.578;2022-12-24T14:19:12;10.10;99.90
14378;DHT22;7272;53.668;9.578;2022-12-24T14:22:24;10.10;99.90
14378;DHT22;7272;53.668;9.578;2022-12-24T14:25:28;10.20;99.90
14378;DHT22;7272;53.668;9.578;2022-12-24T14:28:34;10.20;99.90
14378;DHT22;7272;53.668;9.578;2022-12-24T14:31:37;10.10;99.90
14378;DHT22;7272;53.668;9.578;2022-12-24T14:34:39;10.10;99.90
14378;DHT22;7272;53.668;9.578;2022-12-24T14:37:46;10.10;99.90
14378;DHT22;7272;53.668;9.578;2022-12-24T14:40:52;10.10;99.90
14378;DHT22;7272;53.668;9.578;2022-12-24T14:44:03;10.10;99.90
14378;DHT22;7272;53.668;9.578;2022-12-24T14:47:18;10.00;99.90
14378;DHT22;7272;53.668;9.578;2022-12-24T14:50:35;9.90;99.90
14378;DHT22;7272;53.668;9.578;2022-12-24T14:57:19;9.90;99.90
14378;DHT22;7272;53.668;9.578;2022-12-24T15:00:21;9.90;99.90
14378;DHT22;7272;53.668;9.578;2022-12-24T15:03:24;9.80;99.90
14378;DHT22;7272;53.668;9.578;2022-12-24T15:06:31;9.80;99.90
14378;DHT22;7272;53.668;9.578;2022-12-24T15:09:35;9.80;99.90
14378;DHT22;7272;53.668;9.578;2022-12-24T15:12:40;9.80;99.90
14378;DHT22;7272;53.668;9.578;2022-12-24T15:15:44;9.80;99.90
14378;DHT22;7272;53.668;9.578;2022-12-24T15:18:49;9.80;99.90
14378;DHT22;7272;53.668;9.578;2022-12-24T15:21:53;9.80;99.90
14378;DHT22;7272;53.668;9.578;2022-12-24T15:24:56;9.80;99.90
14378;DHT22;7272;53.668;9.578;2022-12-24T15:27:58;9.80;99.90
14378;DHT22;7272;53.668;9.578;2022-12-24T15:31:05;9.80;99.90
14378;DHT22;7272;53.668;9.578;2022-12-24T15:34:24;9.80;99.90
14378;DHT22;7272;53.668;9.578;2022-12-24T15:37:29;9.80;99.90
14378;DHT22;7272;53.668;9.578;2022-12-24T15:40:33;9.80;99.90
14378;DHT22;7272;53.668;9.578;2022-12-24T15:43:38;9.80;99.90
14378;DHT22;7272;53.668;9.578;2022-12-24T15:46:41;9.80;99.90
14378;DHT22;7272;53.668;9.578;2022-12-24T15:49:46;9.80;99.90
14378;DHT22;7272;53.668;9.578;2022-12-24T15:52:49;9.80;99.90
14378;DHT22;7272;53.668;9.578;2022-12-24T15:56:27;9.80;99.90
14378;DHT22;7272;53.668;9.578;2022-12-24T15:59:33;9.90;99.90
14378;DHT22;7272;53.668;9.578;2022-12-24T16:02:39;9.90;99.90
14378;DHT22;7272;53.668;9.578;2022-12-24T16:05:41;9.90;99.90
14378;DHT22;7272;53.668;9.578;2022-12-24T16:08:43;10.00;99.90
14378;DHT22;7272;53.668;9.578;2022-12-24T16:11:47;10.00;99.90
14378;DHT22;7272;53.668;9.578;2022-12-24T16:14:51;10.00;99.90
14378;DHT22;7272;53.668;9.578;2022-12-24T16:17:54;10.00;99.90
14378;DHT22;7272;53.668;9.578;2022-12-24T16:20:56;10.00;99.90
14378;DHT22;7272;53.668;9.578;2022-12-24T16:24:06;10.00;99.90
14378;DHT22;7272;53.668;9.578;2022-12-24T16:27:12;10.00;99.90
14378;DHT22;7272;53.668;9.578;2022-12-24T16:30:14;10.00;99.90
14378;DHT22;7272;53.668;9.578;2022-12-24T16:33:18;9.90;99.90
14378;DHT22;7272;53.668;9.578;2022-12-24T16:36:21;9.90;99.90
14378;DHT22;7272;53.668;9.578;2022-12-24T16:39:25;9.90;99.90
14378;DHT22;7272;53.668;9.578;2022-12-24T16:42:30;9.90;99.90
14378;DHT22;7272;53.668;9.578;2022-12-24T16:45:49;9.90;99.90
14378;DHT22;7272;53.668;9.578;2022-12-24T16:48:51;9.80;99.90
14378;DHT22;7272;53.668;9.578;2022-12-24T16:51:53;9.80;99.90
14378;DHT22;7272;53.668;9.578;2022-12-24T16:54:56;9.80;99.90
14378;DHT22;7272;53.668;9.578;2022-12-24T16:57:59;9.80;99.90
14378;DHT22;7272;53.668;9.578;2022-12-24T17:01:08;9.80;99.90
14378;DHT22;7272;53.668;9.578;2022-12-24T17:04:10;9.90;99.90
14378;DHT22;7272;53.668;9.578;2022-12-24T17:07:14;9.90;99.90
14378;DHT22;7272;53.668;9.578;2022-12-24T17:10:16;10.10;99.90
14378;DHT22;7272;53.668;9.578;2022-12-24T17:13:20;10.10;99.90
14378;DHT22;7272;53.668;9.578;2022-12-24T17:16:21;10.10;99.90
14378;DHT22;7272;53.668;9.578;2022-12-24T17:19:24;10.00;99.90
14378;DHT22;7272;53.668;9.578;2022-12-24T17:22:26;10.00;99.90
14378;DHT22;7272;53.668;9.578;2022-12-24T17:25:28;10.00;99.90
14378;DHT22;7272;53.668;9.578;2022-12-24T17:28:31;10.00;99.90
14378;DHT22;7272;53.668;9.578;2022-12-24T17:31:33;10.00;99.90
14378;DHT22;7272;53.668;9.578;2022-12-24T17:34:35;10.00;99.90
14378;DHT22;7272;53.668;9.578;2022-12-24T17:37:37;10.00;99.90
14378;DHT22;7272;53.668;9.578;2022-12-24T17:40:39;10.00;99.90
14378;DHT22;7272;53.668;9.578;2022-12-24T17:43:42;10.00;99.90
14378;DHT22;7272;53.668;9.578;2022-12-24T17:46:44;10.00;99.90
14378;DHT22;7272;53.668;9.578;2022-12-24T17:49:46;10.00;99.90
14378;DHT22;7272;53.668;9.578;2022-12-24T17:52:48;10.00;99.90
14378;DHT22;7272;53.668;9.578;2022-12-24T17:55:50;10.00;99.90
14378;DHT22;7272;53.668;9.578;2022-12-24T17:58:53;10.00;99.90
14378;DHT22;7272;53.668;9.578;2022-12-24T18:01:55;10.00;99.90
14378;DHT22;7272;53.668;9.578;2022-12-24T18:05:04;10.00;99.90
14378;DHT22;7272;53.668;9.578;2022-12-24T18:08:06;10.00;99.90
14378;DHT22;7272;53.668;9.578;2022-12-24T18:11:16;10.00;99.90
14378;DHT22;7272;53.668;9.578;2022-12-24T18:14:20;10.00;99.90
14378;DHT22;7272;53.668;9.578;2022-12-24T18:17:22;10.00;99.90
14378;DHT22;7272;53.668;9.578;2022-12-24T18:20:24;10.00;99.90
14378;DHT22;7272;53.668;9.578;2022-12-24T18:23:26;10.00;99.90
14378;DHT22;7272;53.668;9.578;2022-12-24T18:26:29;9.90;99.90
14378;DHT22;7272;53.668;9.578;2022-12-24T18:29:34;10.00;99.90
14378;DHT22;7272;53.668;9.578;2022-12-24T18:32:41;10.00;99.90
14378;DHT22;7272;53.668;9.578;2022-12-24T18:35:43;10.00;99.90
14378;DHT22;7272;53.668;9.578;2022-12-24T18:38:45;10.00;99.90
14378;DHT22;7272;53.668;9.578;2022-12-24T18:41:47;10.00;99.90
14378;DHT22;7272;53.668;9.578;2022-12-24T18:44:52;10.00;99.90
14378;DHT22;7272;53.668;9.578;2022-12-24T18:47:53;10.00;99.90
14378;DHT22;7272;53.668;9.578;2022-12-24T18:50:57;10.00;99.90
14378;DHT22;7272;53.668;9.578;2022-12-24T18:53:59;10.00;99.90
14378;DHT22;7272;53.668;9.578;2022-12-24T18:57:02;9.90;99.90
14378;DHT22;7272;53.668;9.578;2022-12-24T19:00:07;9.80;99.90
14378;DHT22;7272;53.668;9.578;2022-12-24T19:03:09;9.70;99.90
14378;DHT22;7272;53.668;9.578;2022-12-24T19:06:11;9.70;99.90
14378;DHT22;7272;53.668;9.578;2022-12-24T19:09:19;9.70;99.90
14378;DHT22;7272;53.668;9.578;2022-12-24T19:12:21;9.70;99.90
14378;DHT22;7272;53.668;9.578;2022-12-24T19:15:25;9.80;99.90
14378;DHT22;7272;53.668;9.578;2022-12-24T19:18:28;9.80;99.90
14378;DHT22;7272;53.668;9.578;2022-12-24T19:21:30;9.80;99.90
14378;DHT22;7272;53.668;9.578;2022-12-24T19:24:32;9.90;99.90
14378;DHT22;7272;53.668;9.578;2022-12-24T19:27:34;9.90;99.90
14378;DHT22;7272;53.668;9.578;2022-12-24T19:30:39;9.90;99.90
14378;DHT22;7272;53.668;9.578;2022-12-24T19:33:43;9.80;99.90
14378;DHT22;7272;53.668;9.578;2022-12-24T19:36:45;9.80;99.90
14378;DHT22;7272;53.668;9.578;2022-12-24T19:39:47;9.80;99.90
14378;DHT22;7272;53.668;9.578;2022-12-24T19:42:49;9.70;99.90
14378;DHT22;7272;53.668;9.578;2022-12-24T19:45:57;9.70;99.90
14378;DHT22;7272;53.668;9.578;2022-12-24T19:49:00;9.60;99.90
14378;DHT22;7272;53.668;9.578;2022-12-24T19:52:04;9.50;99.90
14378;DHT22;7272;53.668;9.578;2022-12-24T19:55:08;9.50;99.90
14378;DHT22;7272;53.668;9.578;2022-12-24T19:58:10;9.50;99.90
14378;DHT22;7272;53.668;9.578;2022-12-24T20:01:15;9.40;99.90
14378;DHT22;7272;53.668;9.578;2022-12-24T20:04:17;9.30;99.90
14378;DHT22;7272;53.668;9.578;2022-12-24T20:07:20;9.30;99.90
14378;DHT22;7272;53.668;9.578;2022-12-24T20:10:22;9.30;99.90
14378;DHT22;7272;53.668;9.578;2022-12-24T20:13:23;9.20;99.90
14378;DHT22;7272;53.668;9.578;2022-12-24T20:16:27;9.10;99.90
14378;DHT22;7272;53.668;9.578;2022-12-24T20:19:30;9.00;99.90